EDDN Airport Information

Runway Information
Runway 10 Length 8858 ft width 148 ft
Elevation 1022 ft Threshold 0 ft Heading 99
Runway 28 Length 8858 ft Width 148 ft
Elevation 1046 ft Threshold 0 ft Heading 279
Airport Frequencies
Type AFIS Name MUNCHEN IN Frequency 120.65 MHZ
Type ATIS Name ATIS Frequency 123.075 MHZ
Type DIR Name DIR Frequency 119.475 MHZ
Type GND Name GND Frequency 118.1 MHZ
Type RDR Name MUNCHEN RA Frequency 118.975 MHZ
Type TWR Name TWR Frequency 118.3 MHZ
Airport Navaids
Type DME Name Nurnberg Frequency 113100 KHZ
Type NDB Name Rothenbach Frequency 415 KHZ
Airport Weather Information & NOTAM
ADDS - METARS form results

(1924 UTC 19 January 2019)
Data provider http://aviationweather.gov/metar/data/
 
METAR text: EDDN 191920Z 09007KT CAVOK M03/M08 Q1014 NOSIG
Conditions at: EDDN (NUERNBERG , DE) observed 1920 UTC 19 January 2019
Temperature: -3.0°C (27°F)
Dewpoint: -8.0°C (18°F) [RH = 68%]
Pressure (altimeter): 29.94 inches Hg (1014.0 mb)
Winds: from the E (90 degrees) at 8 MPH (7 knots; 3.6 m/s)
Visibility: 6 or more miles (10+ km)
Ceiling: ceiling and visibility are OK
Clouds: unknown
Weather: no significant weather observed at this time

METAR text: EDDN 191850Z 08006KT CAVOK M02/M08 Q1014 NOSIG
Conditions at: EDDN (NUERNBERG , DE) observed 1850 UTC 19 January 2019
Temperature: -2.0°C (28°F)
Dewpoint: -8.0°C (18°F) [RH = 63%]
Pressure (altimeter): 29.94 inches Hg (1014.0 mb)
Winds: from the E (80 degrees) at 7 MPH (6 knots; 3.1 m/s)
Visibility: 6 or more miles (10+ km)
Ceiling: ceiling and visibility are OK
Clouds: unknown
Weather: no significant weather observed at this time

Forecast for: EDDN (NUERNBERG , DE)
Text: TAF EDDN 191700Z 1918/2018 09004KT CAVOK
Forecast period: 1800 UTC 19 January 2019 to 1800 UTC 20 January 2019
Forecast type: FROM: standard forecast or significant change
Winds: from the E (90 degrees) at 5 MPH (4 knots; 2.1 m/s)
Visibility: 6 or more miles 10+ km)
Ceiling: unknown
Clouds: missing
Weather: NSW  (no significant weather)